Time;durP1;ratioP1;P1;durP2;ratioP2;P2;SDS_P1;SDS_P2;PMS_P1;PMS_P2;Temp;Humidity;BMP_temperature;BMP_pressure;BME280_temperature;BME280_humidity;BME280_pressure;Samples;Min_cycle;Max_cycle;Signal;HPM_P1;HPM_P2
2021/06/10 00:01:26;;;;;;;9.45;6.82;;;;;;;23.43;53.97;101325.59;4971841;28;20509;-64
2021/06/10 00:03:53;;;;;;;8.93;7.32;;;;;;;23.37;54.13;101316.34;4971929;28;20125;-65
2021/06/10 00:06:19;;;;;;;8.65;6.75;;;;;;;23.33;54.24;101317.66;4971388;28;20492;-65
2021/06/10 00:08:46;;;;;;;9.13;7.03;;;;;;;23.30;54.52;101326.84;4972089;28;20105;-65
2021/06/10 00:11:12;;;;;;;10.57;7.63;;;;;;;23.28;54.27;101328.00;4967691;28;20058;-64
2021/06/10 00:13:39;;;;;;;10.90;6.93;;;;;;;23.24;54.80;101327.47;4952875;28;20055;-65
2021/06/10 00:16:07;;;;;;;8.77;7.03;;;;;;;23.20;54.64;101328.78;4952482;29;20055;-64
2021/06/10 00:18:34;;;;;;;11.50;7.05;;;;;;;23.18;54.73;101317.38;4960008;28;20558;-66
2021/06/10 00:21:01;;;;;;;9.70;6.57;;;;;;;23.15;54.69;101329.25;4971307;28;20393;-65
2021/06/10 00:23:27;;;;;;;11.00;7.68;;;;;;;23.13;54.49;101315.16;4973462;28;20113;-66
2021/06/10 00:25:54;;;;;;;9.82;7.03;;;;;;;23.11;54.89;101327.03;4974759;28;20051;-66
2021/06/10 00:28:21;;;;;;;9.63;5.90;;;;;;;23.08;54.92;101325.47;4971520;28;20047;-65
2021/06/10 00:30:47;;;;;;;7.88;6.40;;;;;;;23.05;55.07;101325.78;4967961;28;20416;-65
2021/06/10 00:33:14;;;;;;;8.50;6.20;;;;;;;23.03;54.58;101327.78;4974490;28;20125;-66
2021/06/10 00:35:41;;;;;;;7.03;6.25;;;;;;;23.01;54.97;101329.78;4974465;28;20057;-66
2021/06/10 00:38:08;;;;;;;10.32;6.13;;;;;;;23.00;54.89;101330.78;4974782;28;20054;-66
2021/06/10 00:40:35;;;;;;;9.38;6.30;;;;;;;23.00;54.83;101333.44;4974438;28;20055;-66
2021/06/10 00:43:02;;;;;;;10.15;6.72;;;;;;;22.99;54.72;101332.63;4974586;28;20054;-66
2021/06/10 00:45:29;;;;;;;8.32;6.82;;;;;;;22.99;54.42;101332.63;4974449;28;20492;-66
2021/06/10 00:47:57;;;;;;;11.32;7.05;;;;;;;23.02;54.44;101331.47;4959287;28;20043;-66
2021/06/10 00:50:28;;;;;;;7.45;6.30;;;;;;;23.02;54.51;101325.25;4955258;28;20540;-66
2021/06/10 00:52:55;;;;;;;6.95;6.30;;;;;;;23.01;54.26;101329.78;4955196;28;20062;-66
2021/06/10 00:55:22;;;;;;;7.90;7.05;;;;;;;22.99;54.89;101324.59;4955189;29;20051;-66
2021/06/10 00:57:48;;;;;;;8.65;6.45;;;;;;;22.98;54.46;101325.56;4954912;29;20058;-66
2021/06/10 01:00:16;;;;;;;10.52;7.47;;;;;;;22.97;54.88;101329.25;4954890;29;20055;-66
2021/06/10 01:02:43;;;;;;;11.73;7.55;;;;;;;22.95;55.07;101325.03;4954866;29;20508;-66
2021/06/10 01:05:11;;;;;;;12.73;7.47;;;;;;;22.92;54.97;101328.88;4955003;28;20054;-66
2021/06/10 01:08:05;;;;;;;9.98;7.28;;;;;;;22.85;55.12;101329.63;4954790;28;20137;-66
2021/06/10 01:11:01;;;;;;;13.05;7.50;;;;;;;22.81;55.15;101329.94;4974391;28;20047;-66
2021/06/10 01:13:43;;;;;;;9.85;7.88;;;;;;;22.79;55.16;101333.75;4974217;28;20051;-66
2021/06/10 01:16:13;;;;;;;10.70;7.93;;;;;;;22.76;55.24;101337.56;4973885;28;20051;-66
2021/06/10 01:18:41;;;;;;;11.50;7.20;;;;;;;22.74;55.29;101338.72;4974052;28;20054;-66
2021/06/10 01:21:08;;;;;;;12.48;7.95;;;;;;;22.73;55.68;101342.38;4958753;28;20047;-65
2021/06/10 01:23:38;;;;;;;11.55;7.53;;;;;;;22.71;55.81;101341.72;4954578;29;20051;-66
2021/06/10 01:26:21;;;;;;;9.90;7.50;;;;;;;22.66;55.87;101340.34;4957221;28;20508;-66
2021/06/10 01:28:51;;;;;;;7.90;7.10;;;;;;;22.64;55.87;101344.16;4973786;28;20058;-66
2021/06/10 01:31:18;;;;;;;9.52;8.02;;;;;;;22.62;55.89;101349.63;4973762;28;20125;-66
2021/06/10 01:34:00;;;;;;;7.90;7.00;;;;;;;22.63;55.94;101347.81;4973717;28;20437;-66
2021/06/10 01:36:33;;;;;;;8.95;7.50;;;;;;;22.62;56.07;101346.97;4963327;28;20099;-66
2021/06/10 01:39:04;;;;;;;9.30;7.43;;;;;;;22.61;55.89;101347.97;4954343;28;20102;-66
2021/06/10 01:41:31;;;;;;;9.13;7.45;;;;;;;22.57;55.77;101349.25;4954365;29;20050;-66
2021/06/10 01:44:00;;;;;;;9.88;7.93;;;;;;;22.53;55.93;101339.84;4954291;29;20493;-66
2021/06/10 01:46:28;;;;;;;8.27;7.22;;;;;;;22.48;56.42;101337.63;4954326;29;20047;-66
2021/06/10 01:48:57;;;;;;;8.85;7.63;;;;;;;22.46;56.72;101338.75;4962680;28;20046;-66
2021/06/10 01:51:26;;;;;;;9.88;7.28;;;;;;;22.45;56.68;101332.59;4973640;28;20055;-66
2021/06/10 01:53:55;;;;;;;14.75;7.80;;;;;;;22.46;56.98;101333.41;4970842;28;20054;-66
2021/06/10 01:56:23;;;;;;;8.63;7.75;;;;;;;22.45;56.83;101335.25;4973721;28;20047;-66
2021/06/10 01:58:52;;;;;;;9.80;8.27;;;;;;;22.44;56.89;101327.41;4973547;28;20057;-66
2021/06/10 02:01:24;;;;;;;14.93;8.68;;;;;;;22.45;57.25;101331.75;4973593;28;20050;-66
2021/06/10 02:03:53;;;;;;;13.32;8.57;;;;;;;22.45;57.31;101340.63;4973533;28;20051;-66
2021/06/10 02:06:21;;;;;;;12.10;8.73;;;;;;;22.43;57.15;101326.53;4973506;28;20050;-65
2021/06/10 02:08:49;;;;;;;11.18;9.18;;;;;;;22.44;57.03;101330.06;4964199;28;20071;-66
2021/06/10 02:11:17;;;;;;;9.25;8.35;;;;;;;22.41;57.03;101330.34;4954155;28;20051;-66
2021/06/10 02:13:45;;;;;;;11.25;9.80;;;;;;;22.38;57.13;101331.50;4953908;29;20055;-66
2021/06/10 02:16:12;;;;;;;10.65;9.52;;;;;;;22.29;57.21;101335.88;4954075;29;20489;-66
2021/06/10 02:18:41;;;;;;;11.10;9.00;;;;;;;22.21;57.64;101340.28;4953992;29;20051;-66
2021/06/10 02:21:11;;;;;;;11.57;9.32;;;;;;;22.16;57.91;101340.75;4954216;28;20058;-65
2021/06/10 02:23:43;;;;;;;12.13;8.93;;;;;;;22.15;57.58;101347.91;4953851;29;20068;-66
2021/06/10 02:26:10;;;;;;;10.27;8.60;;;;;;;22.15;57.69;101347.09;4954017;28;20058;-66
2021/06/10 02:28:37;;;;;;;12.27;10.00;;;;;;;22.12;57.64;101350.06;4954022;29;20469;-65
2021/06/10 02:31:06;;;;;;;11.52;9.23;;;;;;;22.12;57.23;101350.06;4954042;28;20166;-66
2021/06/10 02:33:37;;;;;;;12.57;9.95;;;;;;;22.13;57.09;101346.38;4954008;29;20558;-66
2021/06/10 02:36:07;;;;;;;12.65;8.93;;;;;;;22.14;56.87;101348.06;4953837;28;20410;-66
2021/06/10 02:38:35;;;;;;;13.13;10.43;;;;;;;22.15;57.09;101349.75;4953949;28;20101;-65
2021/06/10 02:41:07;;;;;;;12.05;9.27;;;;;;;22.17;56.74;101353.13;4953795;28;20055;-65
2021/06/10 02:43:35;;;;;;;11.52;9.52;;;;;;;22.19;56.76;101348.47;4953656;28;20047;-66
2021/06/10 02:46:02;;;;;;;11.32;9.75;;;;;;;22.19;56.90;101356.47;4953821;28;20106;-66
2021/06/10 02:48:31;;;;;;;10.45;9.32;;;;;;;22.19;56.84;101348.47;4953733;29;20054;-65
2021/06/10 02:50:58;;;;;;;12.25;9.20;;;;;;;22.14;56.71;101348.94;4954606;28;20485;-65
2021/06/10 02:53:29;;;;;;;13.80;10.15;;;;;;;22.11;57.04;101357.22;4957341;28;20420;-65
2021/06/10 02:55:59;;;;;;;11.73;9.55;;;;;;;22.08;57.15;101362.03;4957268;28;20047;-66
2021/06/10 02:58:27;;;;;;;11.93;9.73;;;;;;;22.09;57.37;101363.72;4957256;28;20054;-66
2021/06/10 03:00:55;;;;;;;13.38;10.20;;;;;;;22.08;57.18;101365.56;4957106;28;20051;-66
2021/06/10 03:03:24;;;;;;;11.43;9.88;;;;;;;22.07;57.45;101360.31;4964319;28;20094;-64
2021/06/10 03:05:51;;;;;;;12.45;10.20;;;;;;;22.07;57.32;101363.00;4973086;28;20050;-65
2021/06/10 03:08:20;;;;;;;11.52;9.43;;;;;;;22.06;57.19;101362.16;4973429;28;20094;-65
2021/06/10 03:10:48;;;;;;;13.20;9.48;;;;;;;22.07;57.65;101357.66;4973421;28;20058;-66
2021/06/10 03:13:19;;;;;;;10.73;9.60;;;;;;;22.07;57.27;101363.00;4973226;28;20047;-66
2021/06/10 03:15:46;;;;;;;13.25;9.75;;;;;;;22.06;57.81;101364.00;4963134;28;20421;-66
2021/06/10 03:18:15;;;;;;;14.02;10.38;;;;;;;22.06;57.72;101364.00;4953674;28;20140;-65
2021/06/10 03:20:41;;;;;;;12.40;9.40;;;;;;;22.07;57.99;101355.84;4953540;28;20055;-66
2021/06/10 03:23:09;;;;;;;14.65;9.32;;;;;;;22.09;57.98;101364.53;4953209;28;20067;-65
2021/06/10 03:25:36;;;;;;;10.73;9.30;;;;;;;22.08;58.48;101362.88;4953284;29;20098;-65
2021/06/10 03:28:04;;;;;;;13.52;10.13;;;;;;;22.09;58.24;101361.03;4953233;29;20113;-64
2021/06/10 03:30:32;;;;;;;14.02;9.40;;;;;;;22.08;58.70;101370.91;4953318;28;20413;-64
2021/06/10 03:33:00;;;;;;;14.07;9.32;;;;;;;22.08;58.89;101365.56;4953200;28;20212;-64
2021/06/10 03:35:28;;;;;;;13.73;9.60;;;;;;;22.08;59.19;101370.03;4953185;28;20051;-64
2021/06/10 03:37:55;;;;;;;14.80;9.85;;;;;;;22.08;59.22;101370.91;4952986;29;20094;-64
2021/06/10 03:40:23;;;;;;;13.75;9.73;;;;;;;22.07;59.14;101369.22;4952810;29;20062;-64
2021/06/10 03:42:51;;;;;;;15.55;10.52;;;;;;;22.06;59.41;101369.38;4952875;29;20079;-64
2021/06/10 03:45:19;;;;;;;11.70;9.50;;;;;;;22.04;59.79;101360.63;4953211;28;20106;-64
2021/06/10 03:47:46;;;;;;;12.77;10.45;;;;;;;22.02;59.79;101364.28;4952864;28;20106;-65
2021/06/10 03:50:16;;;;;;;14.15;9.55;;;;;;;22.04;59.67;101368.66;4953178;28;20047;-64
2021/06/10 03:52:43;;;;;;;14.10;9.48;;;;;;;22.04;59.67;101363.31;4952915;29;20643;-65
2021/06/10 03:55:11;;;;;;;11.48;9.95;;;;;;;22.02;59.69;101366.97;4952897;29;20485;-64
2021/06/10 03:57:38;;;;;;;13.15;9.70;;;;;;;22.04;59.45;101377.50;4952692;29;20098;-64
2021/06/10 04:00:07;;;;;;;15.20;10.35;;;;;;;22.05;60.00;101378.38;4952817;28;20047;-64
2021/06/10 04:02:35;;;;;;;21.75;11.10;;;;;;;22.05;59.91;101373.03;4951614;28;20059;-64
2021/06/10 04:05:03;;;;;;;13.05;9.90;;;;;;;22.06;59.74;101372.03;4952810;28;20055;-64
2021/06/10 04:07:29;;;;;;;11.43;9.20;;;;;;;22.06;59.04;101372.03;4952603;29;20113;-65
2021/06/10 04:09:56;;;;;;;12.23;8.98;;;;;;;22.02;59.22;101372.31;4952345;28;20055;-65
2021/06/10 04:12:23;;;;;;;17.50;10.25;;;;;;;22.04;58.58;101372.16;4952554;28;20055;-65
2021/06/10 04:14:50;;;;;;;15.45;9.45;;;;;;;22.06;59.04;101370.19;4952562;28;20051;-64
2021/06/10 04:17:17;;;;;;;10.63;9.25;;;;;;;22.09;58.89;101377.91;4952569;29;20055;-65
2021/06/10 04:19:44;;;;;;;12.65;9.10;;;;;;;22.11;58.69;101377.78;4952141;28;20052;-64
2021/06/10 04:22:10;;;;;;;14.25;9.75;;;;;;;22.12;58.71;101372.28;4952255;28;20051;-64
2021/06/10 04:24:37;;;;;;;13.18;10.05;;;;;;;22.13;58.96;101376.63;4952160;28;20102;-64
2021/06/10 04:27:05;;;;;;;13.63;9.50;;;;;;;22.15;59.09;101377.31;4952158;28;20051;-64
2021/06/10 04:29:32;;;;;;;14.05;9.73;;;;;;;22.18;59.07;101381.53;4952163;29;20481;-64
2021/06/10 04:31:58;;;;;;;12.20;8.85;;;;;;;22.18;59.11;101376.19;4952020;28;20051;-64
2021/06/10 04:34:25;;;;;;;11.77;9.60;;;;;;;22.15;59.00;101388.00;4952228;28;20058;-66
2021/06/10 04:36:52;;;;;;;13.18;8.82;;;;;;;22.12;59.54;101390.16;4952259;28;20065;-65
2021/06/10 04:39:18;;;;;;;10.23;8.48;;;;;;;22.12;59.51;101387.50;4952594;29;20051;-64
2021/06/10 04:41:45;;;;;;;12.82;8.80;;;;;;;22.14;59.86;101391.69;4952390;28;20051;-66
2021/06/10 04:44:12;;;;;;;14.02;8.70;;;;;;;22.17;59.54;101394.06;4952103;28;20469;-65
2021/06/10 04:46:38;;;;;;;10.07;8.57;;;;;;;22.22;59.44;101392.78;4951892;28;20102;-65
2021/06/10 04:49:06;;;;;;;10.52;8.40;;;;;;;22.25;59.21;101395.16;4951989;29;20054;-65
2021/06/10 04:51:33;;;;;;;11.82;8.27;;;;;;;22.24;59.44;101399.66;4951995;29;20066;-66
2021/06/10 04:53:59;;;;;;;10.45;8.65;;;;;;;22.24;59.15;101402.31;4952013;28;20043;-65
2021/06/10 04:56:26;;;;;;;9.75;8.63;;;;;;;22.25;59.02;101406.69;4951746;29;20516;-65
2021/06/10 04:58:53;;;;;;;9.75;7.63;;;;;;;22.29;58.92;101400.06;4951466;29;20051;-66
2021/06/10 05:01:19;;;;;;;9.48;8.15;;;;;;;22.34;59.29;101405.78;4951662;28;20109;-65
2021/06/10 05:03:46;;;;;;;9.10;8.10;;;;;;;22.35;59.01;101402.13;4951688;28;20051;-66
2021/06/10 05:06:13;;;;;;;9.43;8.23;;;;;;;22.35;58.86;101407.47;4951878;29;20058;-66
2021/06/10 05:08:39;;;;;;;9.93;7.07;;;;;;;22.35;58.69;101401.31;4951542;28;20047;-65
2021/06/10 05:11:06;;;;;;;11.32;7.45;;;;;;;22.38;58.67;101406.38;4951384;29;20051;-65
2021/06/10 05:13:37;;;;;;;8.93;7.63;;;;;;;22.41;58.51;101406.09;4951217;28;20077;-65
2021/06/10 05:16:04;;;;;;;8.95;6.65;;;;;;;22.45;59.05;101398.63;4951369;29;20079;-66
2021/06/10 05:18:30;;;;;;;9.10;6.38;;;;;;;22.47;59.09;101396.63;4951447;28;20134;-64
2021/06/10 05:20:57;;;;;;;9.05;6.18;;;;;;;22.48;58.73;101399.13;4967705;28;20050;-65
2021/06/10 05:23:25;;;;;;;9.38;6.47;;;;;;;22.50;58.60;101399.84;4970579;28;20066;-65
2021/06/10 05:25:52;;;;;;;10.80;6.68;;;;;;;22.52;58.76;101405.03;4969924;28;20571;-65
2021/06/10 05:28:19;;;;;;;7.20;6.30;;;;;;;22.53;58.07;101405.91;4970596;28;20057;-65
2021/06/10 05:30:46;;;;;;;7.80;6.22;;;;;;;22.54;58.18;101404.88;4970538;28;20477;-66
2021/06/10 05:33:13;;;;;;;8.77;6.07;;;;;;;22.57;58.09;101415.31;4970282;28;20460;-65
2021/06/10 05:35:39;;;;;;;9.20;6.28;;;;;;;22.60;58.02;101410.50;4970433;28;20457;-65
2021/06/10 05:38:06;;;;;;;9.85;6.90;;;;;;;22.65;57.79;101410.03;4969150;28;20051;-65
2021/06/10 05:40:32;;;;;;;8.48;6.53;;;;;;;22.70;58.03;101418.44;4970861;28;20121;-65
2021/06/10 05:43:02;;;;;;;8.30;6.28;;;;;;;22.74;57.68;101419.00;4970484;28;20054;-66
2021/06/10 05:45:28;;;;;;;9.13;6.63;;;;;;;22.77;58.18;101421.38;4955228;28;20051;-66
2021/06/10 05:47:55;;;;;;;9.55;6.70;;;;;;;22.81;58.09;101428.09;4950904;29;20494;-66
2021/06/10 05:50:22;;;;;;;8.25;6.50;;;;;;;22.82;58.00;101430.63;4953118;28;20047;-65
2021/06/10 05:52:48;;;;;;;11.25;8.02;;;;;;;22.86;58.28;101438.38;4969813;28;20047;-66
2021/06/10 05:55:15;;;;;;;11.27;7.30;;;;;;;22.87;57.79;101440.03;4970445;28;20113;-65
2021/06/10 05:57:42;;;;;;;11.48;7.68;;;;;;;22.89;57.66;101438.06;4969922;28;20296;-65
2021/06/10 06:00:10;;;;;;;10.43;6.65;;;;;;;22.90;57.80;101434.38;4970364;28;20051;-64
2021/06/10 06:02:36;;;;;;;11.07;6.82;;;;;;;22.93;57.67;101444.78;4957727;28;20059;-65
2021/06/10 06:05:03;;;;;;;11.20;7.65;;;;;;;22.94;57.97;101444.66;4954755;28;20508;-65
2021/06/10 06:07:30;;;;;;;9.70;6.78;;;;;;;22.97;57.54;101452.38;4970323;28;20058;-65
2021/06/10 06:09:57;;;;;;;9.88;6.68;;;;;;;23.02;57.93;101451.06;4969556;28;20079;-64
2021/06/10 06:12:24;;;;;;;7.35;5.63;;;;;;;23.04;57.43;101452.59;4970638;28;20051;-68
2021/06/10 06:14:50;;;;;;;10.27;6.28;;;;;;;23.07;57.12;101449.63;4969977;28;20055;-68
2021/06/10 06:17:17;;;;;;;9.40;6.30;;;;;;;23.10;57.24;101459.19;4969904;28;20051;-67
2021/06/10 06:19:45;;;;;;;7.07;5.88;;;;;;;23.12;56.80;101458.03;4968138;28;20075;-65
2021/06/10 06:22:12;;;;;;;6.85;4.93;;;;;;;23.15;56.40;101471.16;4969561;28;20057;-64
2021/06/10 06:24:39;;;;;;;8.18;4.50;;;;;;;23.19;54.85;101468.19;4969915;28;20058;-66
2021/06/10 06:27:07;;;;;;;5.82;4.43;;;;;;;23.21;54.51;101466.19;4972534;28;20062;-67
2021/06/10 06:29:35;;;;;;;6.82;4.70;;;;;;;23.25;53.93;101472.91;4973672;28;20507;-67
2021/06/10 06:32:03;;;;;;;6.00;4.97;;;;;;;23.26;53.68;101472.78;4965918;28;20046;-69
2021/06/10 06:34:29;;;;;;;4.75;4.25;;;;;;;23.30;53.64;101473.31;4971197;28;20429;-68
2021/06/10 06:36:56;;;;;;;4.80;4.05;;;;;;;23.33;53.11;101474.84;4957298;28;20051;-67
2021/06/10 06:39:23;;;;;;;4.90;4.32;;;;;;;23.38;52.74;101483.25;4954500;28;20553;-69
2021/06/10 06:41:50;;;;;;;5.82;4.35;;;;;;;23.42;52.62;101495.34;4954284;29;20258;-69
2021/06/10 06:44:16;;;;;;;8.90;5.93;;;;;;;23.44;52.45;101510.25;4953873;28;20944;-69
2021/06/10 06:46:43;;;;;;;8.88;6.28;;;;;;;23.48;52.26;101511.63;4953538;28;20497;-69
2021/06/10 06:49:11;;;;;;;10.70;7.38;;;;;;;23.52;52.60;101506.00;4953600;29;20130;-70
2021/06/10 06:51:37;;;;;;;21.65;8.77;;;;;;;23.55;52.89;101509.19;4953665;29;20489;-67
2021/06/10 06:54:04;;;;;;;14.10;8.95;;;;;;;23.57;53.21;101503.69;4960568;28;20088;-67
2021/06/10 06:56:31;;;;;;;16.50;8.60;;;;;;;23.60;53.92;101498.88;4972749;28;20076;-68
2021/06/10 06:58:59;;;;;;;14.32;8.90;;;;;;;23.64;54.00;101510.97;4972738;28;20468;-66
2021/06/10 07:01:26;;;;;;;11.05;8.80;;;;;;;23.68;54.11;101510.63;4972165;28;20456;-68
2021/06/10 07:03:52;;;;;;;9.88;8.48;;;;;;;23.70;54.47;101512.16;4972625;28;20061;-69
2021/06/10 07:06:19;;;;;;;14.10;9.57;;;;;;;23.72;54.62;101512.00;4972349;28;20058;-70
2021/06/10 07:08:46;;;;;;;11.55;9.75;;;;;;;23.72;54.44;101514.69;4972223;28;20093;-67
2021/06/10 07:11:29;;;;;;;9.40;8.40;;;;;;;23.75;53.82;101511.72;4953427;28;20065;-67
2021/06/10 07:13:55;;;;;;;13.85;8.38;;;;;;;23.76;53.51;101511.53;4952702;28;20051;-68
2021/06/10 07:16:22;;;;;;;10.95;8.05;;;;;;;23.82;53.59;101504.75;4953277;29;20058;-66
2021/06/10 07:18:49;;;;;;;14.90;7.00;;;;;;;23.87;53.89;101502.44;4953314;28;20048;-68
2021/06/10 07:21:16;;;;;;;13.38;8.57;;;;;;;23.92;54.06;101497.47;4952547;29;20070;-66
2021/06/10 07:23:42;;;;;;;12.93;8.25;;;;;;;23.98;54.17;101506.72;4952746;29;20060;-65
2021/06/10 07:26:09;;;;;;;12.07;8.75;;;;;;;24.02;54.08;101501.88;4953039;29;20059;-68
2021/06/10 07:28:35;;;;;;;5.78;5.28;;;;;;;24.05;53.89;101502.41;4952366;28;20098;-63
2021/06/10 07:31:02;;;;;;;10.85;5.50;;;;;;;24.10;53.53;101510.00;4952957;28;20058;-67
2021/06/10 07:33:29;;;;;;;8.93;7.72;;;;;;;24.13;53.51;101507.81;4952444;28;20047;-65
2021/06/10 07:35:55;;;;;;;8.05;6.93;;;;;;;24.17;52.84;101511.03;4969893;28;20054;-65
2021/06/10 07:38:22;;;;;;;10.10;7.32;;;;;;;24.22;52.45;101511.41;4971918;28;20051;-64
2021/06/10 07:40:49;;;;;;;8.77;6.57;;;;;;;24.27;51.48;101498.34;4972036;28;20057;-65
2021/06/10 07:43:16;;;;;;;15.10;6.63;;;;;;;24.34;51.67;101503.94;4970019;28;20047;-64
2021/06/10 07:45:43;;;;;;;10.90;6.50;;;;;;;24.52;51.24;101511.03;4958827;28;20055;-64
2021/06/10 07:48:09;;;;;;;9.52;6.40;;;;;;;24.70;50.92;101502.97;4971880;28;20057;-66
2021/06/10 07:50:36;;;;;;;7.57;6.38;;;;;;;24.78;50.67;101505.66;4971238;28;20053;-66
2021/06/10 07:53:04;;;;;;;10.10;7.25;;;;;;;24.83;50.56;101503.34;4971261;28;20066;-64
2021/06/10 07:55:31;;;;;;;8.52;6.28;;;;;;;24.89;50.49;101505.38;4971408;28;20039;-65
2021/06/10 07:58:01;;;;;;;7.50;6.32;;;;;;;24.93;50.19;101503.22;4970437;28;20428;-69
2021/06/10 08:00:28;;;;;;;7.63;6.30;;;;;;;25.00;49.91;101506.06;4970491;28;20043;-66
2021/06/10 08:02:57;;;;;;;7.70;5.60;;;;;;;25.06;49.55;101506.25;4971291;28;20101;-64
2021/06/10 08:05:25;;;;;;;8.82;5.80;;;;;;;25.19;49.48;101500.44;4971679;28;20497;-63
2021/06/10 08:07:54;;;;;;;8.07;6.00;;;;;;;25.31;49.53;101505.47;4971595;28;20061;-66
2021/06/10 08:10:21;;;;;;;8.80;6.50;;;;;;;25.39;49.20;101502.81;4971658;28;20428;-66
2021/06/10 08:12:48;;;;;;;12.02;7.70;;;;;;;25.43;48.26;101504.16;4971192;28;20069;-66
2021/06/10 08:15:15;;;;;;;7.43;6.25;;;;;;;25.48;48.18;101495.63;4968135;28;20465;-63
2021/06/10 08:17:42;;;;;;;7.28;5.50;;;;;;;25.54;48.32;101498.47;4968580;28;20472;-64
2021/06/10 08:20:11;;;;;;;7.47;5.00;;;;;;;25.62;48.15;101496.78;4970083;28;20503;-65
2021/06/10 08:22:38;;;;;;;8.23;5.50;;;;;;;25.69;47.83;101493.25;4970990;28;20057;-64
2021/06/10 08:25:07;;;;;;;5.43;4.07;;;;;;;25.78;48.21;101494.09;4970397;28;20051;-64
2021/06/10 08:27:35;;;;;;;6.53;4.40;;;;;;;25.86;47.36;101491.38;4969925;28;20047;-65
2021/06/10 08:30:04;;;;;;;10.10;4.90;;;;;;;25.94;46.99;101497.78;4969372;28;20053;-65
2021/06/10 08:32:31;;;;;;;6.43;4.20;;;;;;;26.04;46.63;101496.59;4970196;28;20047;-64
2021/06/10 08:34:57;;;;;;;6.15;4.43;;;;;;;26.13;46.32;101496.59;4968143;28;20053;-64
2021/06/10 08:37:24;;;;;;;4.82;4.28;;;;;;;26.22;45.93;101503.63;4970420;28;20518;-65
2021/06/10 08:39:51;;;;;;;6.25;3.85;;;;;;;26.28;45.84;101491.34;4971278;28;20128;-67
2021/06/10 08:42:18;;;;;;;6.50;4.70;;;;;;;26.38;45.58;101494.69;4970978;28;20058;-61
2021/06/10 08:44:46;;;;;;;5.43;3.70;;;;;;;26.46;45.27;101496.50;4971024;28;20051;-61
2021/06/10 08:47:14;;;;;;;4.18;3.78;;;;;;;26.58;44.93;101491.59;4970914;28;20897;-61
2021/06/10 08:49:45;;;;;;;5.65;3.40;;;;;;;26.68;44.20;101498.44;4969308;28;20066;-60
2021/06/10 08:52:12;;;;;;;4.45;3.92;;;;;;;26.76;43.32;101496.75;4969224;28;20133;-60
2021/06/10 08:54:39;;;;;;;4.05;3.67;;;;;;;26.85;43.71;101493.81;4970585;28;20051;-61
2021/06/10 08:57:09;;;;;;;4.20;3.17;;;;;;;26.88;42.73;101496.19;4970425;28;20046;-61
2021/06/10 08:59:36;;;;;;;7.63;3.42;;;;;;;26.96;42.75;101495.28;4970202;28;20042;-62
2021/06/10 09:02:07;;;;;;;4.45;3.60;;;;;;;27.04;42.95;101500.63;4969526;28;20097;-64
2021/06/10 09:04:34;;;;;;;5.93;3.65;;;;;;;27.11;42.35;101499.91;4969982;28;20457;-61
2021/06/10 09:07:03;;;;;;;4.68;3.58;;;;;;;27.16;41.84;101498.38;4968590;28;20051;-62
2021/06/10 09:09:43;;;;;;;3.88;3.50;;;;;;;27.24;41.77;101499.34;4970634;28;20069;-62
2021/06/10 09:12:12;;;;;;;7.85;3.40;;;;;;;27.34;41.45;101497.25;4969857;28;20054;-62
2021/06/10 09:15:03;;;;;;;3.40;2.92;;;;;;;27.41;41.03;101505.47;4969686;28;20058;-62
2021/06/10 09:17:36;;;;;;;5.65;3.95;;;;;;;27.48;40.39;101499.19;4970402;28;20106;-62
2021/06/10 09:20:24;;;;;;;4.90;3.58;;;;;;;27.58;40.23;101490.84;4970156;28;20129;-62
2021/06/10 09:23:10;;;;;;;4.55;3.10;;;;;;;27.67;40.16;101499.72;4969923;28;20113;-62
2021/06/10 09:25:38;;;;;;;4.25;3.85;;;;;;;27.67;39.90;101505.94;4963712;28;20050;-62
2021/06/10 09:28:06;;;;;;;3.63;3.00;;;;;;;27.70;40.21;101499.34;4969905;28;20126;-63
2021/06/10 09:30:37;;;;;;;4.30;3.47;;;;;;;27.76;40.25;101501.31;4969142;28;20054;-62
2021/06/10 09:33:10;;;;;;;4.97;3.90;;;;;;;27.84;40.21;101498.53;4969351;28;20046;-62
2021/06/10 09:35:40;;;;;;;3.92;3.53;;;;;;;27.86;38.77;101503.75;4970159;28;20073;-62
2021/06/10 09:38:10;;;;;;;4.78;3.38;;;;;;;27.88;38.53;101500.88;4969802;28;20566;-62
2021/06/10 09:40:37;;;;;;;5.57;3.00;;;;;;;27.82;37.61;101505.97;4963352;28;20121;-64
2021/06/10 09:43:04;;;;;;;7.07;3.55;;;;;;;27.83;38.20;101494.19;4969496;28;20051;-65
2021/06/10 09:45:31;;;;;;;4.15;3.58;;;;;;;27.89;38.35;101499.84;4969717;28;20050;-62
2021/06/10 09:48:04;;;;;;;7.00;3.97;;;;;;;27.99;38.48;101493.16;4969809;28;20055;-66
2021/06/10 09:50:38;;;;;;;4.07;3.60;;;;;;;27.99;38.83;101503.13;4968566;28;20047;-62
2021/06/10 09:53:08;;;;;;;3.75;3.13;;;;;;;28.08;38.82;101493.94;4969436;28;20528;-63
2021/06/10 09:55:52;;;;;;;5.07;3.60;;;;;;;28.16;39.41;101496.56;4967182;28;20043;-63
2021/06/10 09:58:40;;;;;;;4.22;3.42;;;;;;;28.27;39.06;101489.03;4966158;28;20489;-63
2021/06/10 10:01:14;;;;;;;4.20;2.90;;;;;;;28.30;38.27;101491.34;4969015;28;20055;-63
2021/06/10 10:03:50;;;;;;;4.75;2.85;;;;;;;28.39;37.41;101489.41;4972684;28;20109;-62
2021/06/10 10:06:25;;;;;;;5.28;3.15;;;;;;;28.47;36.81;101484.72;4973528;28;20049;-63
2021/06/10 10:09:00;;;;;;;3.25;2.88;;;;;;;28.54;37.04;101484.81;4972870;28;20047;-64
2021/06/10 10:11:30;;;;;;;3.70;3.40;;;;;;;28.58;36.82;101483.44;4970894;28;20051;-63
2021/06/10 10:13:59;;;;;;;4.90;3.10;;;;;;;28.59;36.43;101482.38;4972221;28;20051;-61
2021/06/10 10:16:28;;;;;;;2.95;2.75;;;;;;;28.62;36.39;101484.72;4969225;28;20061;-62
2021/06/10 10:18:56;;;;;;;3.60;2.90;;;;;;;28.73;36.60;101496.91;4972371;28;20047;-62
2021/06/10 10:21:29;;;;;;;4.43;3.22;;;;;;;28.74;36.22;101487.78;4972713;28;20420;-63
2021/06/10 10:24:10;;;;;;;3.40;3.10;;;;;;;28.57;36.30;101494.41;4972797;28;20063;-61
2021/06/10 10:26:38;;;;;;;10.48;3.35;;;;;;;28.57;36.24;101481.75;4972392;28;20049;-62
2021/06/10 10:29:10;;;;;;;3.10;2.80;;;;;;;28.66;36.31;101480.66;4971879;28;20046;-62
2021/06/10 10:31:37;;;;;;;3.08;2.72;;;;;;;28.59;35.71;101484.25;4967904;28;20456;-61
2021/06/10 10:34:04;;;;;;;4.78;3.08;;;;;;;28.61;35.58;101480.34;4953875;28;20055;-61
2021/06/10 10:36:42;;;;;;;5.35;2.85;;;;;;;28.72;35.72;101486.31;4964564;28;20043;-61
2021/06/10 10:39:10;;;;;;;5.25;3.20;;;;;;;28.84;36.09;101474.00;4978173;28;20058;-61
2021/06/10 10:41:49;;;;;;;4.13;3.10;;;;;;;28.72;36.09;101479.06;4975714;28;20500;-62
2021/06/10 10:44:22;;;;;;;3.72;3.30;;;;;;;28.49;35.81;101471.91;4981393;28;20072;-61
2021/06/10 10:47:10;;;;;;;6.07;2.95;;;;;;;28.30;35.82;101473.31;4959313;28;20560;-61
2021/06/10 10:49:41;;;;;;;3.33;3.03;;;;;;;28.25;36.30;101474.88;4957566;28;20070;-62
2021/06/10 10:52:14;;;;;;;24.05;3.97;;;;;;;28.21;37.27;101470.88;4955149;28;20047;-61
2021/06/10 10:54:49;;;;;;;3.40;2.70;;;;;;;28.09;36.86;101475.91;4966731;28;20061;-61
2021/06/10 10:57:31;;;;;;;4.18;3.28;;;;;;;27.98;36.66;101471.78;4959682;28;20101;-62
2021/06/10 10:59:59;;;;;;;3.40;3.10;;;;;;;27.93;36.08;101471.50;4959109;28;20043;-61
2021/06/10 11:02:27;;;;;;;4.82;3.10;;;;;;;27.89;36.30;101467.50;4960694;28;20051;-61
2021/06/10 11:04:58;;;;;;;3.45;3.10;;;;;;;27.89;36.90;101471.00;4984350;28;20104;-62
2021/06/10 11:07:40;;;;;;;4.25;3.28;;;;;;;27.88;37.32;101463.09;4975892;28;20084;-62
2021/06/10 11:10:16;;;;;;;3.70;3.40;;;;;;;27.94;37.48;101460.50;4991870;28;20500;-64
2021/06/10 11:12:47;;;;;;;4.65;3.33;;;;;;;27.98;37.72;101460.97;4985589;28;20055;-62
2021/06/10 11:15:24;;;;;;;5.25;3.28;;;;;;;27.97;37.91;101457.44;4972219;28;20085;-62
2021/06/10 11:17:57;;;;;;;5.40;3.60;;;;;;;27.96;37.61;101458.47;4957831;28;20051;-61
2021/06/10 11:20:36;;;;;;;6.20;3.50;;;;;;;27.96;38.41;101455.78;4976502;28;20058;-62
2021/06/10 11:23:26;;;;;;;5.35;3.38;;;;;;;27.93;38.80;101450.72;4973861;28;20050;-61
2021/06/10 11:25:56;;;;;;;5.50;3.53;;;;;;;27.89;38.98;101454.81;4977614;28;20046;-60
2021/06/10 11:28:29;;;;;;;5.32;3.28;;;;;;;27.84;38.90;101452.66;4974427;28;20050;-61
2021/06/10 11:31:17;;;;;;;3.78;3.40;;;;;;;27.77;38.52;101457.16;4974738;28;20058;-63